Time;durP1;ratioP1;P1;durP2;ratioP2;P2;SDS_P1;SDS_P2;PMS_P1;PMS_P2;Temp;Humidity;BMP_temperature;BMP_pressure;BME280_temperature;BME280_humidity;BME280_pressure;Samples;Min_cycle;Max_cycle;Signal;HPM_P1;HPM_P2
2023/03/16 00:00:45;;;;;;;30.80;21.77;;;;;;;0.37;100.00;97052.72;5054542;28;20598;-59
2023/03/16 00:03:11;;;;;;;26.87;20.47;;;;;;;0.36;100.00;97051.13;5054367;28;20174;-59
2023/03/16 00:05:37;;;;;;;25.53;20.27;;;;;;;0.37;100.00;97060.47;5054196;28;20232;-60
2023/03/16 00:08:03;;;;;;;24.03;19.63;;;;;;;0.37;100.00;97063.03;5054402;28;20178;-58
2023/03/16 00:10:28;;;;;;;24.30;19.67;;;;;;;0.38;100.00;97054.34;5054637;28;20217;-60
2023/03/16 00:12:56;;;;;;;23.63;18.10;;;;;;;0.35;100.00;97054.66;5054434;28;20194;-60
2023/03/16 00:15:23;;;;;;;22.83;18.80;;;;;;;0.42;100.00;97054.84;5054788;28;20178;-60
2023/03/16 00:17:49;;;;;;;25.50;19.67;;;;;;;0.33;100.00;97055.78;5053730;28;20170;-61
2023/03/16 00:20:16;;;;;;;22.97;18.70;;;;;;;0.33;100.00;97055.78;5053523;28;20297;-59
2023/03/16 00:22:42;;;;;;;23.90;19.27;;;;;;;0.43;100.00;97058.22;5054306;28;20251;-60
2023/03/16 00:25:13;;;;;;;22.50;17.67;;;;;;;0.34;100.00;97055.59;5053858;28;20166;-58
2023/03/16 00:27:40;;;;;;;22.13;18.90;;;;;;;0.36;100.00;97053.69;5054095;28;20173;-60
2023/03/16 00:30:06;;;;;;;24.23;19.93;;;;;;;0.31;100.00;97052.53;5035072;28;20202;-59
2023/03/16 00:32:34;;;;;;;23.50;19.40;;;;;;;0.27;100.00;97053.81;5053720;28;20178;-59
2023/03/16 00:35:03;;;;;;;26.93;20.67;;;;;;;0.24;100.00;97054.13;5053630;28;20189;-58
2023/03/16 00:37:30;;;;;;;28.27;21.67;;;;;;;0.21;100.00;97054.44;5053721;28;20209;-61
2023/03/16 00:39:55;;;;;;;24.73;20.50;;;;;;;0.18;100.00;97055.56;5053673;28;20259;-58
2023/03/16 00:42:26;;;;;;;29.57;21.67;;;;;;;0.21;100.00;97059.59;5053586;28;20178;-58
2023/03/16 00:44:58;;;;;;;24.80;21.33;;;;;;;0.13;100.00;97060.38;5051689;28;20193;-59
2023/03/16 00:47:27;;;;;;;23.43;18.20;;;;;;;0.28;100.00;97058.03;5051205;28;20710;-58
2023/03/16 00:49:52;;;;;;;22.77;18.47;;;;;;;0.30;100.00;97056.88;5053163;28;20206;-61
2023/03/16 00:52:19;;;;;;;27.10;18.90;;;;;;;0.26;100.00;97062.53;5052634;28;20192;-61
2023/03/16 00:54:46;;;;;;;24.23;19.17;;;;;;;0.32;100.00;97051.59;5069817;28;20534;-58
2023/03/16 00:57:16;;;;;;;24.23;19.70;;;;;;;0.34;100.00;97050.44;5073501;28;20544;-60
2023/03/16 00:59:41;;;;;;;25.47;18.10;;;;;;;0.25;100.00;97048.00;5075982;28;20212;-61
2023/03/16 01:02:08;;;;;;;21.67;18.27;;;;;;;0.40;100.00;97055.00;5090101;28;20196;-60
2023/03/16 01:04:35;;;;;;;27.13;18.83;;;;;;;0.39;100.00;97055.16;5065756;28;20177;-60
2023/03/16 01:07:04;;;;;;;22.80;18.27;;;;;;;0.32;100.00;97054.16;5072902;28;20182;-61
2023/03/16 01:09:35;;;;;;;23.30;19.03;;;;;;;0.25;100.00;97056.56;5073222;28;20227;-61
2023/03/16 01:12:12;;;;;;;24.03;19.33;;;;;;;0.30;100.00;97051.72;5073152;28;20178;-61
2023/03/16 01:14:38;;;;;;;25.57;19.27;;;;;;;0.29;100.00;97052.69;5066547;28;20572;-60
2023/03/16 01:17:07;;;;;;;23.80;19.20;;;;;;;0.27;100.00;97054.63;5071631;28;20177;-61
2023/03/16 01:19:34;;;;;;;23.30;19.77;;;;;;;0.16;100.00;97047.19;5073201;28;20303;-61
2023/03/16 01:22:01;;;;;;;24.17;19.23;;;;;;;0.21;100.00;97050.09;5072698;28;20260;-61
2023/03/16 01:24:27;;;;;;;23.97;20.13;;;;;;;0.18;100.00;97049.59;5056515;28;20647;-61
2023/03/16 01:26:53;;;;;;;22.80;18.23;;;;;;;0.14;100.00;97051.69;5072483;28;20230;-59
2023/03/16 01:29:18;;;;;;;22.93;18.90;;;;;;;0.11;100.00;97049.44;5072352;28;20216;-58
2023/03/16 01:31:44;;;;;;;25.00;20.00;;;;;;;0.00;100.00;97047.13;5072956;28;20177;-58
2023/03/16 01:34:15;;;;;;;20.80;18.57;;;;;;;0.02;100.00;97047.75;5072532;28;20216;-57
2023/03/16 01:36:57;;;;;;;27.20;19.00;;;;;;;-0.03;100.00;97047.41;5073086;28;20220;-60
2023/03/16 01:39:23;;;;;;;25.07;21.13;;;;;;;-0.02;100.00;97038.72;5072890;28;20284;-60
2023/03/16 01:41:55;;;;;;;27.10;21.90;;;;;;;-0.08;100.00;97035.00;5073051;28;20200;-61
2023/03/16 01:44:27;;;;;;;31.77;22.93;;;;;;;-0.17;100.00;97042.84;5072414;28;20188;-58
2023/03/16 01:46:52;;;;;;;31.63;24.27;;;;;;;-0.18;100.00;97038.66;5071468;28;20185;-60
2023/03/16 01:49:25;;;;;;;26.97;22.20;;;;;;;-0.24;100.00;97034.09;5073192;28;20209;-60
2023/03/16 01:51:57;;;;;;;32.83;24.43;;;;;;;-0.29;100.00;97033.75;5073671;28;20237;-59
2023/03/16 01:54:28;;;;;;;32.50;23.43;;;;;;;-0.36;100.00;97033.56;5071148;28;20225;-60
2023/03/16 01:57:20;;;;;;;33.60;23.50;;;;;;;-0.37;100.00;97028.56;5074727;28;20173;-60
2023/03/16 01:59:56;;;;;;;35.10;23.97;;;;;;;-0.44;100.00;97026.59;5074359;28;20205;-61
2023/03/16 02:02:26;;;;;;;36.43;24.43;;;;;;;-0.50;100.00;97028.94;5074683;28;20207;-60
2023/03/16 02:05:06;;;;;;;35.33;22.97;;;;;;;-0.45;100.00;97026.75;5074545;28;20315;-59
2023/03/16 02:07:36;;;;;;;33.73;23.93;;;;;;;-0.56;100.00;97025.22;5057061;28;20227;-59
2023/03/16 02:10:05;;;;;;;31.10;22.23;;;;;;;-0.60;100.00;97026.50;5071594;28;20558;-57
2023/03/16 02:12:30;;;;;;;33.73;22.37;;;;;;;-0.60;100.00;97020.53;5072682;28;20264;-59
2023/03/16 02:14:56;;;;;;;32.57;21.87;;;;;;;-0.65;100.00;97018.41;5072400;28;20346;-57
2023/03/16 02:17:25;;;;;;;31.93;22.83;;;;;;;-0.58;100.00;97019.44;5072363;28;20689;-59
2023/03/16 02:20:00;;;;;;;35.17;22.70;;;;;;;-0.59;100.00;97012.66;5072412;28;20197;-58
2023/03/16 02:22:27;;;;;;;35.57;23.27;;;;;;;-0.56;100.00;97006.41;5072366;28;20196;-60
2023/03/16 02:24:53;;;;;;;30.50;22.97;;;;;;;-0.57;100.00;97004.81;5072444;28;20173;-60
2023/03/16 02:27:54;;;;;;;30.93;22.53;;;;;;;-0.55;100.00;97008.00;5071892;28;20172;-58
2023/03/16 02:30:20;;;;;;;30.80;23.13;;;;;;;-0.62;100.00;97001.88;5071815;28;20542;-60
2023/03/16 02:32:50;;;;;;;31.67;22.63;;;;;;;-0.65;100.00;97008.13;5072518;28;20181;-60
2023/03/16 02:35:16;;;;;;;30.97;21.43;;;;;;;-0.71;100.00;96995.84;5055947;28;20587;-60
2023/03/16 02:37:41;;;;;;;31.47;22.73;;;;;;;-0.66;100.00;97000.53;5071751;28;20265;-60
2023/03/16 02:40:25;;;;;;;29.60;21.40;;;;;;;-0.65;100.00;96997.81;5071918;28;20681;-60
2023/03/16 02:43:07;;;;;;;32.00;21.53;;;;;;;-0.68;100.00;97005.06;5074206;28;20180;-59
2023/03/16 02:45:39;;;;;;;27.53;21.40;;;;;;;-0.74;100.00;96997.94;5076170;28;20278;-61
2023/03/16 02:48:13;;;;;;;26.83;20.70;;;;;;;-0.75;100.00;96998.88;5076146;28;20311;-60
2023/03/16 02:50:48;;;;;;;31.87;21.90;;;;;;;-0.70;100.00;97001.81;5086854;28;20176;-60
2023/03/16 02:53:14;;;;;;;25.90;21.40;;;;;;;-0.67;100.00;96998.94;5069628;28;20301;-61
2023/03/16 02:55:40;;;;;;;27.73;20.47;;;;;;;-0.70;100.00;96988.94;5078785;28;20177;-59
2023/03/16 02:58:05;;;;;;;29.03;20.53;;;;;;;-0.69;100.00;96991.38;5096326;28;20226;-60
2023/03/16 03:00:31;;;;;;;31.23;21.73;;;;;;;-0.76;100.00;96995.50;5095869;28;20173;-60
2023/03/16 03:02:57;;;;;;;27.23;20.50;;;;;;;-0.75;100.00;96991.16;5096127;28;20200;-60
2023/03/16 03:05:22;;;;;;;30.67;21.93;;;;;;;-0.76;100.00;96985.22;5096347;28;20214;-60
2023/03/16 03:07:48;;;;;;;30.63;21.17;;;;;;;-0.72;100.00;96977.97;5095312;28;20165;-58
2023/03/16 03:10:13;;;;;;;30.30;21.13;;;;;;;-0.77;100.00;96977.63;5095778;28;20275;-56
2023/03/16 03:12:39;;;;;;;29.87;20.77;;;;;;;-0.74;100.00;96978.16;5095897;28;20251;-60
2023/03/16 03:15:05;;;;;;;27.20;21.00;;;;;;;-0.73;100.00;96979.78;5095272;28;20604;-60
2023/03/16 03:17:31;;;;;;;31.40;21.47;;;;;;;-0.75;100.00;96973.97;5095715;28;20187;-60
2023/03/16 03:19:58;;;;;;;27.30;20.33;;;;;;;-0.78;100.00;96984.53;5095080;28;20704;-57
2023/03/16 03:22:25;;;;;;;25.40;20.40;;;;;;;-0.74;100.00;96985.88;5095106;28;20180;-58
2023/03/16 03:24:51;;;;;;;25.30;20.97;;;;;;;-0.80;100.00;96983.91;5095387;28;20196;-59
2023/03/16 03:27:17;;;;;;;32.23;21.67;;;;;;;-0.80;100.00;96991.63;5095222;28;20215;-56
2023/03/16 03:29:43;;;;;;;29.43;20.67;;;;;;;-0.78;100.00;96989.69;5060370;28;20250;-56
2023/03/16 03:32:09;;;;;;;26.70;20.33;;;;;;;-0.71;100.00;96990.72;5095633;28;20173;-59
2023/03/16 03:34:34;;;;;;;26.57;21.53;;;;;;;-0.75;100.00;96975.72;5095771;28;20295;-58
2023/03/16 03:37:00;;;;;;;26.53;20.90;;;;;;;-0.73;100.00;96972.06;5101230;28;20173;-57
2023/03/16 03:39:25;;;;;;;25.87;20.13;;;;;;;-0.81;100.00;96966.84;5098946;28;20682;-58
2023/03/16 03:41:53;;;;;;;25.77;20.70;;;;;;;-0.76;100.00;96962.06;5095047;28;20260;-58
2023/03/16 03:44:20;;;;;;;26.67;20.50;;;;;;;-0.79;100.00;96964.13;5094998;28;20188;-59
2023/03/16 03:46:46;;;;;;;29.17;20.47;;;;;;;-0.86;100.00;96956.19;5092418;28;20697;-59
2023/03/16 03:49:12;;;;;;;30.27;21.10;;;;;;;-0.82;100.00;96962.66;5094409;28;20196;-58
2023/03/16 03:51:37;;;;;;;27.70;21.17;;;;;;;-0.73;100.00;96960.97;5094737;28;20173;-59
2023/03/16 03:54:03;;;;;;;34.50;21.90;;;;;;;-0.71;100.00;96957.25;5076422;28;20245;-58
2023/03/16 03:56:28;;;;;;;29.20;20.27;;;;;;;-0.69;100.00;96967.41;5074938;28;20213;-59
2023/03/16 03:58:53;;;;;;;27.90;20.43;;;;;;;-0.68;100.00;96962.13;5074035;28;20220;-59
2023/03/16 04:01:19;;;;;;;28.07;21.10;;;;;;;-0.64;100.00;96962.59;5074704;28;20200;-59
2023/03/16 04:03:45;;;;;;;29.73;20.57;;;;;;;-0.70;100.00;96956.31;5072797;28;20268;-59
2023/03/16 04:06:10;;;;;;;32.70;21.40;;;;;;;-0.66;100.00;96949.06;5074108;28;20524;-60
2023/03/16 04:08:36;;;;;;;31.70;20.47;;;;;;;-0.58;100.00;96949.13;5074122;28;20250;-58
2023/03/16 04:11:01;;;;;;;30.00;21.00;;;;;;;-0.64;100.00;96945.41;5074284;28;20177;-59
2023/03/16 04:13:27;;;;;;;31.83;20.47;;;;;;;-0.61;100.00;96945.09;5073958;28;20197;-58
2023/03/16 04:15:57;;;;;;;29.70;20.67;;;;;;;-0.62;100.00;96958.94;5074286;28;20227;-59
2023/03/16 04:18:23;;;;;;;31.77;22.00;;;;;;;-0.63;100.00;96957.31;5073909;28;20300;-60
2023/03/16 04:20:48;;;;;;;31.17;21.80;;;;;;;-0.56;100.00;96955.72;5074257;28;20244;-57
2023/03/16 04:23:15;;;;;;;29.23;22.00;;;;;;;-0.59;100.00;96952.66;5074106;28;20192;-57
2023/03/16 04:25:41;;;;;;;29.83;21.33;;;;;;;-0.57;100.00;96953.31;5073805;28;20173;-59
2023/03/16 04:28:06;;;;;;;31.77;22.27;;;;;;;-0.63;100.00;96952.16;5073741;28;20201;-59
2023/03/16 04:30:32;;;;;;;31.27;21.60;;;;;;;-0.58;100.00;96947.38;5074371;28;20174;-59
2023/03/16 04:32:57;;;;;;;35.33;22.90;;;;;;;-0.62;100.00;96946.06;5072698;28;20205;-60
2023/03/16 04:35:23;;;;;;;33.70;22.70;;;;;;;-0.61;100.00;96944.28;5057020;28;20192;-60
2023/03/16 04:37:48;;;;;;;30.20;22.30;;;;;;;-0.56;100.00;96944.66;5072782;28;20173;-60
2023/03/16 04:40:18;;;;;;;33.73;21.83;;;;;;;-0.62;100.00;96932.38;5072739;28;20263;-60
2023/03/16 04:42:44;;;;;;;29.70;22.17;;;;;;;-0.63;100.00;96936.72;5073574;28;20181;-60
2023/03/16 04:45:11;;;;;;;30.47;22.13;;;;;;;-0.60;100.00;96928.69;5072520;28;20213;-60
2023/03/16 04:47:37;;;;;;;30.80;22.47;;;;;;;-0.63;100.00;96929.00;5059337;28;20231;-60
2023/03/16 04:50:04;;;;;;;32.63;22.70;;;;;;;-0.55;100.00;96928.22;5072129;28;20609;-60
2023/03/16 04:52:30;;;;;;;33.07;22.53;;;;;;;-0.52;100.00;96931.31;5070124;28;20245;-60
2023/03/16 04:54:55;;;;;;;30.63;21.93;;;;;;;-0.53;100.00;96928.88;5073292;28;20197;-60
2023/03/16 04:57:22;;;;;;;30.73;22.27;;;;;;;-0.51;100.00;96937.28;5072877;28;20223;-58
2023/03/16 04:59:48;;;;;;;33.67;23.67;;;;;;;-0.57;100.00;96932.72;5073035;28;20201;-56
2023/03/16 05:02:13;;;;;;;31.40;23.20;;;;;;;-0.60;100.00;96938.16;5073064;28;20184;-58
2023/03/16 05:04:39;;;;;;;31.07;22.57;;;;;;;-0.53;100.00;96941.75;5072765;28;20165;-59
2023/03/16 05:07:04;;;;;;;31.90;24.70;;;;;;;-0.56;100.00;96940.28;5072583;28;20207;-60
2023/03/16 05:09:30;;;;;;;33.30;23.13;;;;;;;-0.57;100.00;96940.47;5071878;28;20204;-58
2023/03/16 05:11:55;;;;;;;32.37;24.63;;;;;;;-0.49;100.00;96938.72;5072864;28;20188;-59
2023/03/16 05:14:20;;;;;;;34.97;24.00;;;;;;;-0.57;100.00;96927.59;5072956;28;20292;-60
2023/03/16 05:16:46;;;;;;;32.30;24.03;;;;;;;-0.61;100.00;96931.41;5073134;28;20181;-57
2023/03/16 05:19:11;;;;;;;34.03;23.63;;;;;;;-0.64;100.00;96931.72;5072574;28;20216;-56
2023/03/16 05:21:37;;;;;;;32.03;22.63;;;;;;;-0.58;100.00;96923.41;5072196;28;20184;-54
2023/03/16 05:24:06;;;;;;;30.10;22.30;;;;;;;-0.61;100.00;96928.81;5072783;28;20277;-57
2023/03/16 05:26:32;;;;;;;31.43;23.57;;;;;;;-0.54;100.00;96924.69;5072580;28;20208;-57
2023/03/16 05:28:58;;;;;;;35.00;22.97;;;;;;;-0.58;100.00;96931.13;5072657;28;20608;-58
2023/03/16 05:31:27;;;;;;;33.43;22.67;;;;;;;-0.55;100.00;96928.22;5072439;28;20200;-55
2023/03/16 05:33:53;;;;;;;33.90;24.10;;;;;;;-0.53;100.00;96928.88;5071318;28;20209;-59
2023/03/16 05:36:19;;;;;;;29.57;22.27;;;;;;;-0.46;100.00;96932.47;5072624;28;20627;-60
2023/03/16 05:38:45;;;;;;;29.60;22.73;;;;;;;-0.46;100.00;96930.69;5073067;28;20204;-60
2023/03/16 05:41:11;;;;;;;34.07;23.47;;;;;;;-0.45;100.00;96932.28;5072710;28;20685;-60
2023/03/16 05:43:36;;;;;;;30.50;22.70;;;;;;;-0.40;100.00;96929.28;5072030;28;20177;-59
2023/03/16 05:46:02;;;;;;;33.70;23.53;;;;;;;-0.36;100.00;96927.19;5070037;28;20549;-60
2023/03/16 05:48:28;;;;;;;34.47;23.40;;;;;;;-0.31;100.00;96924.94;5072364;28;20212;-60
2023/03/16 05:50:53;;;;;;;35.63;23.47;;;;;;;-0.26;100.00;96930.44;5072789;28;20177;-60
2023/03/16 05:53:19;;;;;;;32.03;22.40;;;;;;;-0.12;100.00;96922.13;5068819;28;20233;-61
2023/03/16 05:55:50;;;;;;;35.10;23.70;;;;;;;-0.07;100.00;96918.13;5056295;28;20544;-60
2023/03/16 05:58:16;;;;;;;35.73;23.80;;;;;;;-0.01;100.00;96914.13;5072112;28;20200;-61
2023/03/16 06:00:41;;;;;;;35.40;23.77;;;;;;;0.04;100.00;96922.19;5072298;28;20181;-61
2023/03/16 06:03:07;;;;;;;31.60;22.60;;;;;;;0.13;100.00;96916.06;5072108;28;20181;-61
2023/03/16 06:05:32;;;;;;;32.97;22.87;;;;;;;0.15;100.00;96915.91;5072480;28;20231;-61
2023/03/16 06:07:57;;;;;;;33.13;21.93;;;;;;;0.12;100.00;96917.03;5071711;28;20165;-62
2023/03/16 06:10:25;;;;;;;38.43;22.70;;;;;;;0.25;100.00;96916.56;5072028;28;20169;-61
2023/03/16 06:12:56;;;;;;;32.97;22.20;;;;;;;0.34;100.00;96920.75;5072561;28;20207;-60
2023/03/16 06:15:23;;;;;;;31.90;22.00;;;;;;;0.47;100.00;96915.94;5072116;28;20207;-63
2023/03/16 06:17:49;;;;;;;30.93;20.47;;;;;;;0.51;100.00;96912.06;5074937;28;20587;-62
2023/03/16 06:20:16;;;;;;;29.37;20.83;;;;;;;0.51;100.00;96913.84;5076024;28;20205;-62
2023/03/16 06:22:42;;;;;;;27.27;19.73;;;;;;;0.63;100.00;96918.53;5075775;28;20261;-62
2023/03/16 06:25:09;;;;;;;25.80;19.27;;;;;;;0.69;100.00;96915.31;5076084;28;20173;-61
2023/03/16 06:27:35;;;;;;;28.07;19.47;;;;;;;0.71;100.00;96918.53;5076077;28;20173;-61
2023/03/16 06:30:01;;;;;;;26.57;20.47;;;;;;;0.94;100.00;96908.38;5075635;28;20287;-60
2023/03/16 06:32:27;;;;;;;24.83;17.77;;;;;;;0.98;100.00;96914.00;5059761;28;20177;-60
2023/03/16 06:34:52;;;;;;;23.83;17.57;;;;;;;1.08;100.00;96917.22;5075607;28;20291;-61
2023/03/16 06:37:18;;;;;;;25.10;17.70;;;;;;;1.12;100.00;96926.22;5075692;28;20256;-61
2023/03/16 06:39:43;;;;;;;21.83;16.63;;;;;;;1.28;100.00;96913.31;5076068;28;20201;-61
2023/03/16 06:42:09;;;;;;;25.77;17.43;;;;;;;1.36;100.00;96921.03;5075910;28;20165;-60
2023/03/16 06:44:35;;;;;;;22.97;17.67;;;;;;;1.45;100.00;96926.97;5073647;28;20540;-61
2023/03/16 06:47:00;;;;;;;20.90;16.33;;;;;;;1.55;100.00;96923.22;5075353;28;20177;-62
2023/03/16 06:49:26;;;;;;;45.03;41.30;;;;;;;1.58;100.00;96924.66;5074813;28;20197;-62
2023/03/16 06:51:51;;;;;;;21.43;16.00;;;;;;;1.60;100.00;96918.38;5074875;28;20189;-63
2023/03/16 06:54:17;;;;;;;20.83;15.97;;;;;;;1.86;100.00;96925.84;5072543;28;20630;-63
2023/03/16 06:56:42;;;;;;;19.80;15.20;;;;;;;1.95;100.00;96922.22;5075119;28;20165;-62
2023/03/16 06:59:08;;;;;;;19.40;15.57;;;;;;;2.01;100.00;96920.75;5075404;28;20205;-62
2023/03/16 07:01:33;;;;;;;18.10;14.70;;;;;;;2.26;100.00;96924.81;5075242;28;20174;-62
2023/03/16 07:03:58;;;;;;;19.40;15.53;;;;;;;2.41;100.00;96930.06;5076414;28;20177;-62
2023/03/16 07:06:24;;;;;;;18.83;14.20;;;;;;;2.39;100.00;96932.03;5076732;28;20256;-62
2023/03/16 07:08:50;;;;;;;18.30;14.53;;;;;;;2.56;100.00;96924.97;5076786;28;20201;-66
2023/03/16 07:11:15;;;;;;;19.33;15.20;;;;;;;2.62;100.00;96925.06;5074882;28;20587;-62
2023/03/16 07:13:41;;;;;;;17.10;14.27;;;;;;;2.75;100.00;96921.88;5073915;28;20288;-61
2023/03/16 07:16:07;;;;;;;18.57;13.83;;;;;;;2.81;100.00;96929.75;5075545;28;20502;-63
2023/03/16 07:18:32;;;;;;;19.23;14.00;;;;;;;3.02;100.00;96931.69;5075018;28;20515;-69
2023/03/16 07:20:58;;;;;;;15.83;13.30;;;;;;;3.08;100.00;96938.75;5074748;28;20201;-62
2023/03/16 07:23:24;;;;;;;15.03;12.20;;;;;;;3.00;100.00;96943.22;5074535;28;20602;-59
2023/03/16 07:25:51;;;;;;;16.27;13.77;;;;;;;3.20;100.00;96936.53;5073753;28;20170;-60
2023/03/16 07:28:17;;;;;;;15.87;12.47;;;;;;;3.23;100.00;96942.16;5074225;28;20681;-60
2023/03/16 07:30:45;;;;;;;14.73;12.50;;;;;;;3.27;100.00;96942.63;5075254;28;20517;-60
2023/03/16 07:33:10;;;;;;;14.87;12.77;;;;;;;3.14;100.00;96950.19;5075112;28;20209;-61
2023/03/16 07:35:37;;;;;;;17.00;12.93;;;;;;;3.30;100.00;96943.06;5074570;28;20213;-61
2023/03/16 07:38:03;;;;;;;16.13;13.03;;;;;;;3.34;100.00;96938.34;5074475;28;20173;-60
2023/03/16 07:40:28;;;;;;;15.30;12.80;;;;;;;3.45;100.00;96937.13;5073499;28;20177;-61
2023/03/16 07:42:54;;;;;;;16.63;15.07;;;;;;;3.49;100.00;96944.34;5074573;28;20234;-61
2023/03/16 07:45:20;;;;;;;17.83;15.80;;;;;;;5.98;100.00;96933.88;5068670;28;20541;-62
2023/03/16 07:47:46;;;;;;;13.00;11.70;;;;;;;5.04;100.00;96938.66;5074183;28;20169;-61
2023/03/16 07:50:14;;;;;;;12.70;11.33;;;;;;;4.33;100.00;96944.78;5074591;28;20268;-61
2023/03/16 07:52:40;;;;;;;14.13;12.63;;;;;;;4.22;100.00;96940.88;5072514;28;20181;-60
2023/03/16 07:55:05;;;;;;;13.27;10.93;;;;;;;4.21;100.00;96941.88;5073805;28;20703;-60
2023/03/16 07:57:31;;;;;;;11.43;10.30;;;;;;;4.12;100.00;96946.34;5073604;28;20201;-60
2023/03/16 07:59:58;;;;;;;12.70;11.40;;;;;;;4.12;100.00;96948.16;5072947;28;20533;-60
2023/03/16 08:02:23;;;;;;;14.83;12.07;;;;;;;4.35;100.00;96945.38;5074505;28;20174;-60
2023/03/16 08:04:49;;;;;;;12.63;11.33;;;;;;;4.39;100.00;96942.28;5074245;28;20177;-60
2023/03/16 08:07:14;;;;;;;11.83;10.63;;;;;;;4.42;100.00;96941.88;5073973;28;20568;-62
2023/03/16 08:09:40;;;;;;;13.27;11.10;;;;;;;4.40;99.89;96943.84;5073843;28;20712;-58
2023/03/16 08:12:07;;;;;;;12.77;10.90;;;;;;;4.66;100.00;96948.53;5073742;28;20162;-61
2023/03/16 08:14:35;;;;;;;10.90;9.77;;;;;;;4.51;99.10;96952.97;5072504;28;20197;-60
2023/03/16 08:17:02;;;;;;;12.63;10.67;;;;;;;4.45;99.48;96949.31;5073482;28;20234;-60
2023/03/16 08:19:28;;;;;;;11.07;9.97;;;;;;;4.73;98.38;96954.59;5073914;28;20209;-60
2023/03/16 08:21:54;;;;;;;11.23;10.20;;;;;;;4.71;96.12;96948.78;5073814;28;20691;-60
2023/03/16 08:24:19;;;;;;;13.13;10.33;;;;;;;4.76;96.74;96956.00;5074741;28;20192;-60
2023/03/16 08:26:46;;;;;;;12.17;9.70;;;;;;;4.95;95.96;96945.00;5077727;28;20180;-60
2023/03/16 08:29:12;;;;;;;18.10;16.70;;;;;;;4.88;95.18;96947.53;5077284;28;20197;-60
2023/03/16 08:31:37;;;;;;;12.20;11.10;;;;;;;4.86;95.72;96940.91;5073146;28;20238;-60
2023/03/16 08:34:03;;;;;;;18.10;16.70;;;;;;;4.97;95.18;96935.19;5073186;28;20224;-60
2023/03/16 08:36:29;;;;;;;16.70;15.27;;;;;;;5.07;93.80;96946.06;5073210;28;20183;-61
2023/03/16 08:38:54;;;;;;;12.97;11.77;;;;;;;5.11;93.87;96943.91;5072894;28;20209;-60
2023/03/16 08:41:21;;;;;;;11.17;10.17;;;;;;;5.05;92.45;96939.47;5071622;28;20238;-60
2023/03/16 08:43:46;;;;;;;11.87;10.77;;;;;;;4.99;92.29;96938.44;5069511;28;20240;-60
2023/03/16 08:46:12;;;;;;;10.57;9.47;;;;;;;4.88;94.38;96929.34;5073187;28;20189;-60
2023/03/16 08:48:41;;;;;;;11.33;10.13;;;;;;;4.98;94.40;96929.84;5072941;28;20223;-60
2023/03/16 08:51:09;;;;;;;11.10;10.10;;;;;;;4.99;93.18;96931.44;5071861;28;20189;-60
2023/03/16 08:53:35;;;;;;;12.80;11.30;;;;;;;4.90;93.23;96924.75;5069978;28;20240;-60
2023/03/16 08:56:11;;;;;;;12.40;10.03;;;;;;;4.97;93.87;96930.00;5073474;28;20177;-59
2023/03/16 08:58:38;;;;;;;14.20;13.00;;;;;;;4.79;93.17;96927.09;5073164;28;20204;-61
2023/03/16 09:01:04;;;;;;;11.93;10.73;;;;;;;5.08;94.71;96916.50;5073183;28;20170;-61
2023/03/16 09:03:31;;;;;;;13.37;12.17;;;;;;;5.34;94.76;96919.31;5073100;28;20212;-58
2023/03/16 09:06:02;;;;;;;17.50;12.80;;;;;;;5.41;94.22;96921.94;5073046;28;20166;-60
2023/03/16 09:08:28;;;;;;;15.80;14.43;;;;;;;5.11;94.02;96918.75;5073292;28;20200;-58
2023/03/16 09:11:06;;;;;;;13.77;12.37;;;;;;;5.12;95.87;96912.56;5073196;28;20170;-60
2023/03/16 09:13:33;;;;;;;14.93;13.67;;;;;;;5.35;94.45;96923.50;5072531;28;20201;-60
2023/03/16 09:15:58;;;;;;;12.60;11.40;;;;;;;5.35;93.43;96920.13;5073119;28;20177;-62
2023/03/16 09:18:26;;;;;;;10.57;9.47;;;;;;;5.40;91.19;96928.94;5072861;28;20719;-60
2023/03/16 09:20:56;;;;;;;12.47;8.83;;;;;;;5.44;92.08;96927.56;5073039;28;20157;-59
2023/03/16 09:23:22;;;;;;;11.50;9.63;;;;;;;5.60;90.78;96917.84;5073202;28;20169;-61
2023/03/16 09:25:47;;;;;;;16.53;15.03;;;;;;;5.77;92.61;96914.75;5072449;28;20193;-59
2023/03/16 09:28:12;;;;;;;11.23;9.60;;;;;;;5.75;89.87;96908.13;5072372;28;20193;-60
2023/03/16 09:30:38;;;;;;;10.50;9.50;;;;;;;5.65;90.97;96910.28;5072092;28;20180;-61
2023/03/16 09:33:04;;;;;;;12.67;11.47;;;;;;;5.57;89.93;96900.84;5070533;28;20185;-62
2023/03/16 09:35:31;;;;;;;12.17;11.07;;;;;;;5.80;89.56;96896.16;5072327;28;20185;-61
2023/03/16 09:37:56;;;;;;;9.80;9.00;;;;;;;5.98;86.68;96884.44;5072066;28;20614;-61
2023/03/16 09:40:25;;;;;;;9.30;8.37;;;;;;;5.97;87.38;96885.44;5072377;28;20259;-61
2023/03/16 09:43:22;;;;;;;8.80;7.90;;;;;;;6.16;87.81;96893.31;5071232;28;20243;-63
2023/03/16 09:46:23;;;;;;;8.60;7.90;;;;;;;6.37;85.97;96899.38;5056160;28;20176;-57
2023/03/16 09:48:49;;;;;;;8.97;8.07;;;;;;;6.62;84.98;96890.81;5065739;28;20253;-60
2023/03/16 09:51:38;;;;;;;13.67;9.60;;;;;;;6.66;84.64;96891.22;5071138;28;20641;-58
2023/03/16 09:54:31;;;;;;;9.33;8.53;;;;;;;6.85;83.14;96884.41;5068766;28;20298;-59
2023/03/16 09:56:59;;;;;;;10.27;9.20;;;;;;;6.55;83.64;96873.56;5050138;28;20204;-58
2023/03/16 09:59:26;;;;;;;12.37;11.07;;;;;;;6.54;82.72;96877.16;5063785;28;20294;-59
2023/03/16 10:02:03;;;;;;;10.03;8.43;;;;;;;6.76;85.16;96875.19;5072016;28;20173;-60
2023/03/16 10:04:40;;;;;;;13.97;12.73;;;;;;;6.79;81.12;96878.19;5072728;28;20169;-59
2023/03/16 10:07:21;;;;;;;18.80;17.30;;;;;;;6.52;82.59;96873.97;5072353;28;20264;-60
2023/03/16 10:10:01;;;;;;;16.63;15.33;;;;;;;6.77;83.50;96867.16;5072212;28;20558;-60
2023/03/16 10:12:37;;;;;;;11.13;10.23;;;;;;;6.48;80.08;96870.94;5072444;28;20201;-60
2023/03/16 10:15:12;;;;;;;11.17;10.27;;;;;;;6.83;78.05;96866.38;5072074;28;20242;-60
2023/03/16 10:17:51;;;;;;;11.83;10.70;;;;;;;7.07;78.38;96870.97;5072328;28;20199;-60
2023/03/16 10:20:19;;;;;;;12.03;11.13;;;;;;;7.34;76.66;96873.53;5071918;28;20165;-60
2023/03/16 10:22:48;;;;;;;17.03;15.70;;;;;;;7.42;76.50;96881.13;5072174;28;20193;-61
2023/03/16 10:25:38;;;;;;;14.10;12.97;;;;;;;7.59;76.10;96879.69;5072062;28;20188;-59
2023/03/16 10:28:03;;;;;;;9.33;8.43;;;;;;;7.69;74.49;96884.50;5072005;28;20212;-61
2023/03/16 10:30:37;;;;;;;8.80;8.10;;;;;;;7.62;73.40;96878.50;5072199;28;20192;-60
2023/03/16 10:33:24;;;;;;;8.33;7.63;;;;;;;7.70;73.38;96880.84;5072226;28;20177;-60
2023/03/16 10:36:08;;;;;;;9.40;8.40;;;;;;;8.01;71.15;96859.28;5072230;28;20178;-61
2023/03/16 10:38:42;;;;;;;8.17;7.57;;;;;;;8.03;69.47;96854.63;5072363;28;20204;-61
2023/03/16 10:41:20;;;;;;;10.50;9.70;;;;;;;7.46;70.13;96861.47;5071818;28;20546;-60
2023/03/16 10:43:49;;;;;;;17.33;16.23;;;;;;;7.19;72.13;96863.31;5069997;28;20196;-61
2023/03/16 10:46:15;;;;;;;8.27;7.47;;;;;;;7.63;73.22;96867.06;5069910;28;20185;-61
2023/03/16 10:48:42;;;;;;;12.23;11.33;;;;;;;7.77;69.76;96869.41;5071935;28;20201;-61
2023/03/16 10:51:11;;;;;;;7.47;6.93;;;;;;;7.65;70.90;96857.19;5069188;28;20264;-60
2023/03/16 10:53:41;;;;;;;15.57;14.53;;;;;;;8.00;69.22;96850.63;5068682;28;20267;-60
2023/03/16 10:56:17;;;;;;;21.73;20.23;;;;;;;8.21;68.90;96854.72;5071246;28;20182;-61
2023/03/16 10:58:42;;;;;;;19.90;18.63;;;;;;;8.42;68.40;96843.97;5072056;28;20201;-61
2023/03/16 11:01:35;;;;;;;10.03;8.73;;;;;;;8.11;67.61;96836.94;5071616;28;20182;-60
2023/03/16 11:04:01;;;;;;;9.33;8.67;;;;;;;8.19;65.39;96839.28;5071680;28;20234;-61
2023/03/16 11:06:32;;;;;;;17.40;16.17;;;;;;;8.21;66.72;96832.03;5075377;28;20161;-60
2023/03/16 11:09:07;;;;;;;17.57;16.37;;;;;;;8.30;66.05;96822.97;5075423;28;20288;-61
2023/03/16 11:11:33;;;;;;;15.77;14.77;;;;;;;8.53;65.96;96830.25;5075736;28;20282;-60
2023/03/16 11:14:01;;;;;;;8.50;7.80;;;;;;;8.12;66.34;96824.69;5075343;28;20213;-61
2023/03/16 11:16:53;;;;;;;6.50;5.97;;;;;;;7.57;67.07;96826.16;5073800;28;20174;-60
2023/03/16 11:19:21;;;;;;;12.53;11.73;;;;;;;7.95;68.02;96840.03;5075081;28;20284;-59
2023/03/16 11:22:02;;;;;;;9.47;8.80;;;;;;;7.80;67.07;96847.31;5075100;28;20235;-60